createdAt,value
2023-01-29T00:01:11.936Z,16.30
2023-01-29T00:03:39.606Z,19.23
2023-01-29T00:06:09.021Z,17.73
2023-01-29T00:08:39.672Z,21.57
2023-01-29T00:11:09.903Z,22.50
2023-01-29T00:13:40.283Z,20.27
2023-01-29T00:16:07.934Z,20.97
2023-01-29T00:18:38.614Z,18.27
2023-01-29T00:21:11.699Z,17.47
2023-01-29T00:23:42.654Z,16.90
2023-01-29T00:26:10.285Z,21.40
2023-01-29T00:28:40.847Z,17.47
2023-01-29T00:31:18.078Z,18.27
2023-01-29T00:34:00.561Z,19.37
2023-01-29T00:36:29.623Z,19.67
2023-01-29T00:39:02.927Z,19.00
2023-01-29T00:41:52.570Z,19.87
2023-01-29T00:44:38.565Z,18.07
2023-01-29T00:47:26.319Z,17.57
2023-01-29T00:52:45.410Z,13.97
2023-01-29T00:55:13.024Z,14.80
2023-01-29T00:57:40.590Z,16.13
2023-01-29T01:00:09.786Z,12.87
2023-01-29T01:02:55.743Z,13.43
2023-01-29T01:05:23.746Z,12.20
2023-01-29T01:07:52.162Z,13.63
2023-01-29T01:10:23.162Z,12.20
2023-01-29T01:13:00.442Z,12.37
2023-01-29T01:15:30.404Z,13.27
2023-01-29T01:17:59.108Z,13.40
2023-01-29T01:20:27.926Z,13.67
2023-01-29T01:22:56.237Z,13.50
2023-01-29T01:25:24.396Z,15.93
2023-01-29T01:27:54.967Z,11.80
2023-01-29T01:30:22.813Z,12.50
2023-01-29T01:32:50.403Z,12.40
2023-01-29T01:35:18.407Z,12.43
2023-01-29T01:37:45.719Z,13.37
2023-01-29T01:40:18.227Z,13.87
2023-01-29T01:42:51.531Z,13.13
2023-01-29T01:45:21.395Z,13.87
2023-01-29T01:47:51.877Z,13.50
2023-01-29T01:50:23.185Z,15.10
2023-01-29T01:52:53.985Z,13.17
2023-01-29T01:55:24.123Z,14.87
2023-01-29T01:57:53.511Z,13.73
2023-01-29T02:00:23.388Z,14.50
2023-01-29T02:03:09.181Z,13.30
2023-01-29T02:05:56.727Z,14.97
2023-01-29T02:08:58.332Z,14.07
2023-01-29T02:11:26.081Z,13.37
2023-01-29T02:13:56.625Z,14.50
2023-01-29T02:16:27.080Z,14.70
2023-01-29T02:18:56.626Z,16.40
2023-01-29T02:21:30.211Z,15.70
2023-01-29T02:24:16.210Z,15.13
2023-01-29T02:26:50.917Z,16.27
2023-01-29T02:29:38.151Z,16.40
2023-01-29T02:32:14.415Z,16.83
2023-01-29T02:35:08.238Z,18.07
2023-01-29T02:37:51.034Z,18.53
2023-01-29T02:40:31.185Z,18.80
2023-01-29T02:43:11.085Z,18.47
2023-01-29T02:46:07.549Z,17.67
2023-01-29T02:48:41.398Z,18.97
2023-01-29T02:51:14.700Z,17.17
2023-01-29T02:53:48.815Z,21.23
2023-01-29T02:56:19.388Z,17.37
2023-01-29T02:58:48.636Z,17.67
2023-01-29T03:01:30.312Z,17.77
2023-01-29T03:04:02.042Z,17.50
2023-01-29T03:06:41.590Z,18.97
2023-01-29T03:09:20.790Z,17.67
2023-01-29T03:11:53.624Z,17.63
2023-01-29T03:14:28.769Z,18.17
2023-01-29T03:16:57.189Z,18.30
2023-01-29T03:19:36.354Z,17.53
2023-01-29T03:22:14.609Z,19.37
2023-01-29T03:25:13.195Z,16.60
2023-01-29T03:28:06.129Z,18.70
2023-01-29T03:33:51.823Z,18.80
2023-01-29T03:36:26.935Z,19.10
2023-01-29T03:38:54.851Z,20.37
2023-01-29T03:41:22.353Z,20.00
2023-01-29T03:44:05.968Z,20.40
2023-01-29T03:46:38.732Z,17.30
2023-01-29T03:49:20.239Z,21.53
2023-01-29T03:51:47.574Z,19.10
2023-01-29T03:54:19.735Z,23.60
2023-01-29T03:57:15.483Z,16.73
2023-01-29T04:00:08.063Z,18.77
2023-01-29T04:03:05.393Z,18.53
2023-01-29T04:05:37.429Z,19.53
2023-01-29T04:08:23.863Z,18.13
2023-01-29T04:10:51.938Z,16.87
2023-01-29T04:13:20.174Z,17.50
2023-01-29T04:15:51.585Z,17.97
2023-01-29T04:18:25.336Z,20.10
2023-01-29T04:21:12.487Z,16.30
2023-01-29T04:23:40.028Z,17.10
2023-01-29T04:26:08.287Z,17.70
2023-01-29T04:28:54.666Z,18.60
2023-01-29T04:31:25.963Z,17.10
2023-01-29T04:34:18.446Z,18.17
2023-01-29T04:36:59.223Z,16.97
2023-01-29T04:39:46.691Z,17.17
2023-01-29T04:42:23.409Z,16.47
2023-01-29T04:45:04.300Z,17.17
2023-01-29T04:47:31.618Z,20.03
2023-01-29T04:50:16.570Z,18.00
2023-01-29T04:52:48.621Z,16.00
2023-01-29T04:55:16.960Z,17.73
2023-01-29T04:57:48.583Z,16.97
2023-01-29T05:00:26.426Z,18.20
2023-01-29T05:02:54.307Z,17.57
2023-01-29T05:05:22.699Z,19.47
2023-01-29T05:07:51.505Z,19.53
2023-01-29T05:10:20.128Z,18.10
2023-01-29T05:12:49.915Z,18.73
2023-01-29T05:15:20.511Z,20.13
2023-01-29T05:17:48.138Z,18.80
2023-01-29T05:20:15.684Z,17.17
2023-01-29T05:22:43.449Z,19.03
2023-01-29T05:25:31.139Z,19.70
2023-01-29T05:28:11.761Z,22.77
2023-01-29T05:30:39.766Z,21.13
2023-01-29T05:33:13.746Z,21.53
2023-01-29T05:35:41.213Z,20.83
2023-01-29T05:38:11.224Z,17.30
2023-01-29T05:40:38.914Z,19.73
2023-01-29T05:43:08.004Z,21.47
2023-01-29T05:45:35.285Z,19.37
2023-01-29T05:48:02.577Z,19.03
2023-01-29T05:50:29.885Z,19.97
2023-01-29T05:53:01.118Z,19.57
2023-01-29T05:55:32.228Z,20.07
2023-01-29T05:57:59.941Z,19.33
2023-01-29T06:00:27.526Z,19.43
2023-01-29T06:02:54.891Z,21.17
2023-01-29T06:05:22.204Z,22.83
2023-01-29T06:07:49.508Z,20.07
2023-01-29T06:10:18.737Z,18.20
2023-01-29T06:12:46.531Z,21.87
2023-01-29T06:15:15.553Z,21.43
2023-01-29T06:17:43.213Z,20.77
2023-01-29T06:20:10.910Z,22.43
2023-01-29T06:22:38.221Z,20.33
2023-01-29T06:25:06.189Z,23.00
2023-01-29T06:27:33.557Z,24.77
2023-01-29T06:30:00.822Z,20.40
2023-01-29T06:32:28.445Z,21.10
2023-01-29T06:34:56.023Z,23.13
2023-01-29T06:37:23.344Z,21.80
2023-01-29T06:39:50.713Z,22.70
2023-01-29T06:42:18.048Z,23.90
2023-01-29T06:44:45.529Z,20.57
2023-01-29T06:47:12.803Z,21.80
2023-01-29T06:49:40.253Z,22.07
2023-01-29T06:52:08.273Z,22.83
2023-01-29T06:54:35.681Z,25.23
2023-01-29T06:57:05.718Z,22.77
2023-01-29T06:59:33.070Z,25.00
2023-01-29T07:02:08.568Z,25.47
2023-01-29T07:04:36.780Z,25.33
2023-01-29T07:07:06.872Z,22.33
2023-01-29T07:09:34.185Z,22.03
2023-01-29T07:12:06.237Z,26.13
2023-01-29T07:14:33.557Z,28.43
2023-01-29T07:17:00.873Z,21.37
2023-01-29T07:19:30.507Z,23.23
2023-01-29T07:22:05.943Z,22.63
2023-01-29T07:24:33.459Z,21.67
2023-01-29T07:27:00.881Z,23.20
2023-01-29T07:29:30.272Z,18.70
2023-01-29T07:32:01.624Z,23.57
2023-01-29T07:34:38.426Z,24.40
2023-01-29T07:37:07.450Z,22.97
2023-01-29T07:39:34.962Z,24.27
2023-01-29T07:42:02.525Z,22.17
2023-01-29T07:44:35.628Z,25.73
2023-01-29T07:47:04.390Z,20.07
2023-01-29T07:49:31.990Z,20.90
2023-01-29T07:51:59.309Z,22.17
2023-01-29T07:54:27.194Z,24.27
2023-01-29T07:56:56.135Z,25.07
2023-01-29T07:59:23.457Z,24.80
2023-01-29T08:01:51.845Z,20.00
2023-01-29T08:04:19.162Z,19.93
2023-01-29T08:06:46.571Z,22.03
2023-01-29T08:09:14.933Z,20.50
2023-01-29T08:11:42.309Z,22.07
2023-01-29T08:14:10.606Z,22.17
2023-01-29T08:16:38.004Z,24.60
2023-01-29T08:19:05.311Z,23.67
2023-01-29T08:21:32.625Z,20.13
2023-01-29T08:26:29.460Z,21.20
2023-01-29T08:28:56.760Z,20.07
2023-01-29T08:31:24.687Z,20.30
2023-01-29T08:33:52.425Z,20.50
2023-01-29T08:36:21.094Z,20.83
2023-01-29T08:38:48.367Z,23.70
2023-01-29T08:41:16.745Z,25.53
2023-01-29T08:43:44.955Z,22.43
2023-01-29T08:46:12.392Z,18.40
2023-01-29T08:48:40.289Z,21.00
2023-01-29T08:51:08.121Z,22.97
2023-01-29T08:53:44.011Z,21.20
2023-01-29T08:56:11.415Z,20.60
2023-01-29T08:58:38.688Z,21.37
2023-01-29T09:01:06.848Z,21.13
2023-01-29T09:03:35.276Z,19.70
2023-01-29T09:06:03.424Z,19.40
2023-01-29T09:08:30.800Z,19.93
2023-01-29T09:11:00.120Z,22.47
2023-01-29T09:13:29.054Z,20.20
2023-01-29T09:15:59.683Z,24.67
2023-01-29T09:18:30.413Z,21.53
2023-01-29T09:20:59.590Z,21.37
2023-01-29T09:23:27.012Z,20.60
2023-01-29T09:25:54.297Z,20.20
2023-01-29T09:28:21.966Z,23.03
2023-01-29T09:30:49.917Z,22.13
2023-01-29T09:33:18.310Z,21.40
2023-01-29T09:35:47.135Z,20.30
2023-01-29T09:38:15.084Z,23.93
2023-01-29T09:40:55.907Z,24.00
2023-01-29T12:45:58.024Z,31.23
2023-01-29T12:48:31.416Z,30.27
2023-01-29T12:51:02.056Z,35.63
2023-01-29T12:53:33.140Z,31.33
2023-01-29T12:56:19.013Z,30.57
2023-01-29T12:58:48.151Z,34.03
2023-01-29T13:01:24.099Z,33.83
2023-01-29T13:03:57.903Z,33.20
2023-01-29T13:06:29.623Z,36.13
2023-01-29T13:08:59.432Z,37.00
2023-01-29T13:11:41.132Z,34.83
2023-01-29T13:14:14.625Z,40.00
2023-01-29T13:16:44.641Z,36.50
2023-01-29T13:19:33.605Z,35.47
2023-01-29T13:22:03.293Z,39.03
2023-01-29T13:25:03.651Z,37.80
2023-01-29T13:27:33.740Z,38.87
2023-01-29T13:30:01.612Z,43.23
2023-01-29T13:32:30.213Z,42.23
2023-01-29T13:34:58.990Z,37.47
2023-01-29T13:37:37.067Z,40.70
2023-01-29T13:40:06.226Z,40.97
2023-01-29T13:42:37.813Z,40.00
2023-01-29T13:45:07.075Z,36.33
2023-01-29T13:47:39.636Z,36.70
2023-01-29T13:50:28.053Z,44.33
2023-01-29T13:52:59.695Z,40.57
2023-01-29T13:55:37.534Z,42.40
2023-01-29T13:58:04.851Z,42.00
2023-01-29T14:00:36.637Z,53.50
2023-01-29T14:03:05.230Z,42.33
2023-01-29T14:05:43.554Z,38.60
2023-01-29T14:08:20.794Z,46.83
2023-01-29T14:11:08.055Z,44.33
2023-01-29T14:13:39.337Z,48.33
2023-01-29T14:16:10.656Z,42.50
2023-01-29T14:18:50.695Z,48.70
2023-01-29T14:21:18.284Z,50.47
2023-01-29T14:23:56.134Z,54.80
2023-01-29T14:26:29.293Z,51.13
2023-01-29T14:28:59.814Z,51.90
2023-01-29T14:31:36.218Z,45.43
2023-01-29T14:34:06.061Z,47.70
2023-01-29T14:36:44.288Z,48.07
2023-01-29T14:39:21.661Z,52.87
2023-01-29T14:41:50.404Z,52.73
2023-01-29T14:44:37.001Z,55.00
2023-01-29T14:47:04.939Z,51.07
2023-01-29T14:50:00.796Z,50.47
2023-01-29T14:52:37.494Z,47.70
2023-01-29T14:55:07.621Z,47.73
2023-01-29T14:57:35.965Z,47.97
2023-01-29T15:00:08.768Z,48.20
2023-01-29T15:02:42.397Z,50.10
2023-01-29T15:05:14.471Z,56.53
2023-01-29T15:08:07.505Z,53.20
2023-01-29T15:10:47.766Z,54.63
2023-01-29T15:13:22.213Z,48.30
2023-01-29T15:16:08.428Z,46.80
2023-01-29T15:18:39.958Z,47.43
2023-01-29T15:21:17.307Z,46.93
2023-01-29T15:23:45.200Z,45.57
2023-01-29T15:26:16.163Z,45.13
2023-01-29T15:28:51.875Z,47.60
2023-01-29T15:31:26.643Z,49.07
2023-01-29T15:34:03.496Z,50.40
2023-01-29T15:36:34.045Z,42.73
2023-01-29T15:39:10.693Z,50.47
2023-01-29T15:41:40.637Z,44.07
2023-01-29T15:44:16.809Z,45.70
2023-01-29T15:46:53.881Z,48.27
2023-01-29T15:49:31.065Z,46.67
2023-01-29T15:51:59.372Z,42.83
2023-01-29T15:54:31.119Z,44.90
2023-01-29T15:56:58.605Z,48.43
2023-01-29T15:59:28.289Z,48.63
2023-01-29T16:01:57.463Z,46.50
2023-01-29T16:04:26.980Z,49.73
2023-01-29T16:06:55.175Z,50.97
2023-01-29T16:09:23.817Z,51.83
2023-01-29T16:11:54.350Z,51.07
2023-01-29T16:14:25.388Z,56.10
2023-01-29T16:16:53.201Z,52.23
2023-01-29T16:19:28.607Z,46.70
2023-01-29T16:21:58.622Z,55.37
2023-01-29T16:24:28.308Z,56.53
2023-01-29T16:27:04.419Z,60.10
2023-01-29T16:29:35.047Z,57.77
2023-01-29T16:32:03.460Z,60.30
2023-01-29T16:34:40.886Z,60.00
2023-01-29T16:37:17.732Z,58.27
2023-01-29T16:39:46.605Z,62.77
2023-01-29T16:42:20.068Z,60.83
2023-01-29T16:44:50.696Z,60.23
2023-01-29T16:47:37.499Z,64.97
2023-01-29T16:50:04.866Z,60.00
2023-01-29T16:52:33.870Z,56.63
2023-01-29T16:55:16.803Z,67.60
2023-01-29T16:57:46.982Z,59.13
2023-01-29T17:00:20.093Z,61.33
2023-01-29T17:02:51.416Z,66.47
2023-01-29T17:05:21.974Z,66.53
2023-01-29T17:07:50.302Z,64.77
2023-01-29T17:10:20.241Z,69.43
2023-01-29T17:12:51.917Z,67.63
2023-01-29T17:15:45.236Z,63.20
2023-01-29T17:18:23.387Z,66.47
2023-01-29T17:20:51.523Z,60.47
2023-01-29T17:23:21.194Z,63.00
2023-01-29T17:25:48.960Z,57.63
2023-01-29T17:28:20.167Z,57.20
2023-01-29T17:31:00.235Z,64.67
2023-01-29T17:33:39.393Z,64.33
2023-01-29T17:36:07.741Z,69.63
2023-01-29T17:38:35.425Z,64.97
2023-01-29T17:41:12.101Z,63.60
2023-01-29T17:43:40.940Z,66.77
2023-01-29T17:46:13.326Z,64.97
2023-01-29T17:48:41.128Z,67.00
2023-01-29T17:51:11.773Z,64.13
2023-01-29T17:53:45.955Z,64.60
2023-01-29T17:56:18.317Z,65.40
2023-01-29T17:58:47.440Z,60.13
2023-01-29T18:01:15.998Z,58.93
2023-01-29T18:03:43.398Z,64.47
2023-01-29T18:06:12.377Z,62.57
2023-01-29T18:08:41.311Z,62.77
2023-01-29T18:11:11.684Z,63.70
2023-01-29T18:13:42.178Z,60.90
2023-01-29T18:16:09.692Z,59.07
2023-01-29T18:18:38.256Z,69.07
2023-01-29T18:21:07.973Z,64.07
2023-01-29T18:23:36.253Z,68.07
2023-01-29T18:26:03.643Z,66.87
2023-01-29T18:28:35.045Z,66.70
2023-01-29T18:31:06.878Z,62.13
2023-01-29T18:33:36.920Z,66.53
2023-01-29T18:36:13.306Z,61.90
2023-01-29T18:38:43.740Z,59.90
2023-01-29T18:41:12.316Z,64.77
2023-01-29T18:43:40.581Z,65.05
2023-01-29T18:46:09.645Z,60.20
2023-01-29T18:48:37.641Z,58.03
2023-01-29T18:51:06.923Z,61.43
2023-01-29T18:53:34.257Z,63.53
2023-01-29T18:56:05.661Z,62.63
2023-01-29T18:58:37.044Z,62.50
2023-01-29T19:01:09.181Z,58.53
2023-01-29T19:03:36.985Z,60.00
2023-01-29T19:06:05.286Z,61.30
2023-01-29T19:08:32.833Z,61.77
2023-01-29T19:11:05.813Z,61.03
2023-01-29T19:13:35.261Z,61.50
2023-01-29T19:16:03.300Z,63.43
2023-01-29T19:18:30.719Z,64.33
2023-01-29T19:20:58.102Z,61.63
2023-01-29T19:23:25.423Z,51.13
2023-01-29T19:25:52.800Z,63.50
2023-01-29T19:28:20.159Z,57.93
2023-01-29T19:30:47.573Z,65.37
2023-01-29T19:33:14.909Z,60.47
2023-01-29T19:35:45.380Z,62.03
2023-01-29T19:38:18.446Z,67.70
2023-01-29T19:40:45.961Z,63.77
2023-01-29T19:43:17.453Z,62.57
2023-01-29T19:45:50.667Z,65.77
2023-01-29T19:48:21.899Z,62.50
2023-01-29T19:50:55.698Z,62.80
2023-01-29T19:53:23.533Z,62.33
2023-01-29T19:56:00.579Z,58.13
2023-01-29T19:58:30.303Z,63.03
2023-01-29T20:01:18.008Z,60.07
2023-01-29T20:03:49.331Z,69.77
2023-01-29T20:06:18.380Z,59.17
2023-01-29T20:08:46.883Z,68.00
2023-01-29T20:11:19.301Z,60.47
2023-01-29T20:13:50.437Z,58.70
2023-01-29T20:16:21.688Z,60.43
2023-01-29T20:19:14.544Z,63.50
2023-01-29T20:21:45.931Z,66.23
2023-01-29T20:24:13.620Z,65.20
2023-01-29T20:26:41.209Z,64.07
2023-01-29T20:29:08.574Z,65.27
2023-01-29T20:31:36.022Z,65.30
2023-01-29T20:34:03.343Z,60.80
2023-01-29T20:36:30.690Z,61.23
2023-01-29T20:38:58.136Z,65.33
2023-01-29T20:41:25.551Z,60.70
2023-01-29T20:43:52.857Z,56.73
2023-01-29T20:46:20.466Z,58.40
2023-01-29T20:48:49.104Z,65.37
2023-01-29T20:51:17.726Z,61.83
2023-01-29T20:53:46.431Z,60.67
2023-01-29T20:56:14.776Z,59.00
2023-01-29T20:58:42.581Z,61.70
2023-01-29T21:01:13.757Z,58.57
2023-01-29T21:03:41.198Z,61.20
2023-01-29T21:06:09.625Z,58.47
2023-01-29T21:08:37.408Z,54.00
2023-01-29T21:11:09.730Z,54.57
2023-01-29T21:13:37.288Z,53.80
2023-01-29T21:16:04.965Z,49.87
2023-01-29T21:18:32.319Z,50.63
2023-01-29T21:20:59.739Z,52.93
2023-01-29T21:23:27.041Z,54.40
2023-01-29T21:25:54.395Z,55.53
2023-01-29T21:28:21.857Z,57.13
2023-01-29T21:30:49.184Z,55.57
2023-01-29T21:33:16.553Z,55.93
2023-01-29T21:35:43.854Z,55.00
2023-01-29T21:38:12.506Z,59.10
2023-01-29T21:40:39.892Z,58.00
2023-01-29T21:43:13.079Z,57.73
2023-01-29T21:45:41.510Z,56.53
2023-01-29T21:48:10.466Z,57.03
2023-01-29T21:50:38.527Z,57.30
2023-01-29T21:53:06.000Z,58.13
2023-01-29T21:55:33.572Z,58.80
2023-01-29T21:58:01.153Z,56.57
2023-01-29T22:00:33.239Z,55.53
2023-01-29T22:03:01.681Z,54.17
2023-01-29T22:05:32.249Z,58.03
2023-01-29T22:07:59.764Z,52.13
2023-01-29T22:10:28.618Z,62.97
2023-01-29T22:12:56.115Z,58.13
2023-01-29T22:15:24.488Z,59.33
2023-01-29T22:17:51.880Z,61.50
2023-01-29T22:20:20.518Z,61.57
2023-01-29T22:22:48.004Z,60.30
2023-01-29T22:25:19.948Z,58.97
2023-01-29T22:27:47.745Z,60.77
2023-01-29T22:30:15.353Z,63.40
2023-01-29T22:32:43.244Z,55.30
2023-01-29T22:35:10.913Z,56.00
2023-01-29T22:37:38.198Z,54.93
2023-01-29T22:40:15.211Z,63.20
2023-01-29T22:42:43.440Z,58.87
2023-01-29T22:45:14.163Z,63.33
2023-01-29T22:47:45.837Z,59.60
2023-01-29T22:50:16.216Z,56.63
2023-01-29T22:52:55.691Z,57.10
2023-01-29T22:55:24.251Z,56.80
2023-01-29T22:57:55.705Z,61.97
2023-01-29T23:00:26.262Z,56.83
2023-01-29T23:02:53.846Z,59.73
2023-01-29T23:05:21.147Z,60.17
2023-01-29T23:07:48.601Z,62.43
2023-01-29T23:10:17.506Z,60.10
